Time;durP1;ratioP1;P1;durP2;ratioP2;P2;SDS_P1;SDS_P2;PMS_P1;PMS_P2;Temp;Humidity;BMP_temperature;BMP_pressure;BME280_temperature;BME280_humidity;BME280_pressure;Samples;Min_cycle;Max_cycle;Signal;HPM_P1;HPM_P2
2021/03/05 00:02:06;;;;;;;0.40;0.40;;;2.80;99.90;;;;;;4953513;28;20701;-84
2021/03/05 00:04:32;;;;;;;0.37;0.37;;;2.80;99.90;;;;;;4975784;28;20220;-83
2021/03/05 00:06:58;;;;;;;0.83;0.50;;;2.80;99.90;;;;;;4949220;28;20428;-84
2021/03/05 00:09:23;;;;;;;0.30;0.30;;;2.80;99.90;;;;;;4938552;28;20201;-84
2021/03/05 00:11:49;;;;;;;0.37;0.37;;;2.80;99.90;;;;;;4927921;28;20953;-85
2021/03/05 00:14:15;;;;;;;0.37;0.37;;;2.80;99.90;;;;;;4961145;28;20279;-83
2021/03/05 00:16:40;;;;;;;0.20;0.20;;;2.80;99.90;;;;;;4957004;28;20302;-85
2021/03/05 00:19:06;;;;;;;0.30;0.27;;;2.80;99.90;;;;;;4979693;28;20295;-83
2021/03/05 00:21:33;;;;;;;0.50;0.50;;;2.80;99.90;;;;;;4957875;28;20228;-85
2021/03/05 00:23:59;;;;;;;0.40;0.40;;;2.80;99.90;;;;;;4966185;28;20311;-86
2021/03/05 00:26:24;;;;;;;4.03;1.33;;;2.80;99.90;;;;;;4956115;28;20228;-83
2021/03/05 00:28:50;;;;;;;0.40;0.40;;;2.70;99.90;;;;;;4964277;28;20263;-84
2021/03/05 00:31:16;;;;;;;0.30;0.30;;;2.70;99.90;;;;;;4961722;28;20689;-85
2021/03/05 00:33:42;;;;;;;0.93;0.53;;;2.80;99.90;;;;;;4957983;28;20234;-86
2021/03/05 00:36:07;;;;;;;1.27;1.27;;;2.70;99.90;;;;;;4960325;28;20658;-85
2021/03/05 00:38:33;;;;;;;0.20;0.20;;;2.70;99.90;;;;;;4938445;28;20200;-84
2021/03/05 00:40:59;;;;;;;0.50;0.50;;;2.70;99.90;;;;;;4950778;28;21073;-86
2021/03/05 00:43:25;;;;;;;1.83;1.33;;;2.70;99.90;;;;;;4975091;28;20215;-84
2021/03/05 00:45:51;;;;;;;0.30;0.30;;;2.70;99.90;;;;;;4974943;28;20587;-83
2021/03/05 00:48:17;;;;;;;0.73;0.23;;;2.70;99.90;;;;;;4965681;28;20268;-84
2021/03/05 00:50:43;;;;;;;1.27;1.27;;;2.70;99.90;;;;;;4975068;28;20227;-83
2021/03/05 00:53:09;;;;;;;1.00;0.47;;;2.60;99.90;;;;;;4953564;28;20640;-86
2021/03/05 00:55:35;;;;;;;0.60;0.60;;;2.60;99.90;;;;;;4954461;28;20294;-87
2021/03/05 00:58:01;;;;;;;0.50;0.50;;;2.70;99.90;;;;;;4955320;28;20755;-88
2021/03/05 01:00:26;;;;;;;1.33;1.23;;;2.70;99.90;;;;;;4968893;28;21121;-84
2021/03/05 01:02:52;;;;;;;0.50;0.50;;;2.70;99.90;;;;;;4959107;28;20192;-84
2021/03/05 01:05:19;;;;;;;0.50;0.50;;;2.80;99.90;;;;;;4959965;28;20208;-88
2021/03/05 01:07:47;;;;;;;0.50;0.50;;;2.80;99.90;;;;;;4987901;28;20212;-88
2021/03/05 01:10:13;;;;;;;0.40;0.40;;;2.80;99.90;;;;;;4963758;28;20208;-85
2021/03/05 01:12:39;;;;;;;0.87;0.63;;;2.80;99.90;;;;;;4960798;28;20239;-84
2021/03/05 01:15:08;;;;;;;0.73;0.73;;;2.80;99.90;;;;;;4977366;28;20206;-84
2021/03/05 01:17:34;;;;;;;0.30;0.30;;;2.80;99.90;;;;;;4974249;28;20230;-84
2021/03/05 01:20:00;;;;;;;0.20;0.20;;;2.80;99.90;;;;;;4973904;28;20211;-82
2021/03/05 01:22:26;;;;;;;0.30;0.30;;;2.80;99.90;;;;;;4993428;28;20287;-85
2021/03/05 01:24:52;;;;;;;0.27;0.27;;;2.90;99.90;;;;;;4987135;28;20236;-83
2021/03/05 01:27:18;;;;;;;1.00;1.00;;;2.80;99.90;;;;;;4955893;28;20189;-83
2021/03/05 01:29:44;;;;;;;0.43;0.43;;;2.80;99.90;;;;;;4996783;28;20199;-85
2021/03/05 01:32:09;;;;;;;0.97;0.67;;;2.80;99.90;;;;;;4969194;28;20238;-86
2021/03/05 01:34:35;;;;;;;0.60;0.60;;;2.70;99.90;;;;;;4966345;28;20240;-88
2021/03/05 01:37:01;;;;;;;0.30;0.30;;;2.70;99.90;;;;;;4976375;28;20289;-83
2021/03/05 01:39:27;;;;;;;0.30;0.30;;;2.70;99.90;;;;;;4972322;28;21083;-83
2021/03/05 01:41:52;;;;;;;0.70;0.70;;;2.70;99.90;;;;;;4974089;28;20291;-83
2021/03/05 01:44:18;;;;;;;6.63;1.70;;;2.80;99.90;;;;;;4971043;28;20215;-87
2021/03/05 01:46:44;;;;;;;0.40;0.40;;;2.70;99.90;;;;;;4966386;28;20230;-85
2021/03/05 01:49:11;;;;;;;8.50;0.83;;;2.70;99.90;;;;;;4957257;28;20223;-83
2021/03/05 01:51:38;;;;;;;1.13;0.60;;;2.70;99.90;;;;;;4974330;28;20322;-85
2021/03/05 01:54:05;;;;;;;0.23;0.23;;;2.70;99.90;;;;;;4969142;28;20599;-88
2021/03/05 01:56:33;;;;;;;0.20;0.20;;;2.60;99.90;;;;;;4991553;28;20287;-84
2021/03/05 01:59:00;;;;;;;0.30;0.30;;;2.70;99.90;;;;;;4985414;28;20215;-84
2021/03/05 02:01:27;;;;;;;0.20;0.20;;;2.70;99.90;;;;;;4969920;28;20223;-82
2021/03/05 02:03:54;;;;;;;0.50;0.50;;;2.70;99.90;;;;;;4968573;28;20216;-88
2021/03/05 02:06:21;;;;;;;2.50;0.73;;;2.70;99.90;;;;;;4973045;28;20220;-84
2021/03/05 02:08:47;;;;;;;0.60;0.60;;;2.70;99.90;;;;;;4991763;28;20210;-82
2021/03/05 02:11:24;;;;;;;0.37;0.37;;;2.70;99.90;;;;;;4973147;28;20227;-86
2021/03/05 02:13:53;;;;;;;2.73;0.47;;;2.60;99.90;;;;;;4989712;28;20219;-86
2021/03/05 02:16:28;;;;;;;0.30;0.30;;;2.60;99.90;;;;;;4975340;28;20324;-84
2021/03/05 02:19:17;;;;;;;0.40;0.40;;;2.60;99.90;;;;;;4993942;28;20246;-86
2021/03/05 02:22:11;;;;;;;0.47;0.47;;;2.60;99.90;;;;;;4989004;28;21076;-84
2021/03/05 02:25:14;;;;;;;0.30;0.30;;;2.60;99.90;;;;;;4999301;28;20228;-86
2021/03/05 02:28:20;;;;;;;0.30;0.30;;;2.60;99.90;;;;;;4989659;28;20224;-82
2021/03/05 02:31:14;;;;;;;7.43;0.50;;;2.60;99.90;;;;;;4988875;28;20268;-83
2021/03/05 02:33:43;;;;;;;2.90;1.07;;;2.60;99.90;;;;;;4969840;28;20803;-86
2021/03/05 02:36:12;;;;;;;3.03;0.50;;;2.60;99.90;;;;;;4970317;28;20637;-86
2021/03/05 02:38:45;;;;;;;0.30;0.30;;;2.50;99.90;;;;;;4962154;28;20181;-87
2021/03/05 02:41:12;;;;;;;0.73;0.53;;;2.50;99.90;;;;;;4994679;28;20632;-82
2021/03/05 02:43:40;;;;;;;1.17;0.57;;;2.50;99.90;;;;;;4979417;28;21205;-85
2021/03/05 02:46:07;;;;;;;0.30;0.30;;;2.50;99.90;;;;;;4970049;28;20276;-83
2021/03/05 02:48:46;;;;;;;0.30;0.30;;;2.50;99.90;;;;;;4976660;28;20227;-83
2021/03/05 02:51:16;;;;;;;1.53;0.83;;;2.60;99.90;;;;;;4966091;28;20207;-82
2021/03/05 02:53:43;;;;;;;1.20;0.60;;;2.50;99.90;;;;;;4963992;28;20346;-87
2021/03/05 02:56:15;;;;;;;1.93;1.00;;;2.40;99.90;;;;;;4957475;28;20232;-85
2021/03/05 02:58:46;;;;;;;0.30;0.30;;;2.30;99.90;;;;;;4981171;28;20223;-84
2021/03/05 03:01:14;;;;;;;3.20;0.60;;;2.30;99.90;;;;;;4994698;28;20226;-86
2021/03/05 03:03:40;;;;;;;0.73;0.73;;;2.30;99.90;;;;;;4988898;28;20311;-84
2021/03/05 03:06:09;;;;;;;0.93;0.50;;;2.30;99.90;;;;;;4987892;28;20192;-83
2021/03/05 03:08:36;;;;;;;1.60;0.53;;;2.30;99.90;;;;;;4978390;28;20236;-83
2021/03/05 03:11:04;;;;;;;0.43;0.43;;;2.30;99.90;;;;;;4976712;28;20342;-86
2021/03/05 03:13:35;;;;;;;0.53;0.53;;;2.30;99.90;;;;;;4971770;28;20215;-83
2021/03/05 03:16:02;;;;;;;0.20;0.20;;;2.30;99.90;;;;;;4965213;28;20221;-83
2021/03/05 03:18:29;;;;;;;0.30;0.30;;;2.30;99.90;;;;;;4969255;28;20228;-81
2021/03/05 03:20:59;;;;;;;0.50;0.50;;;2.30;99.90;;;;;;4954259;28;20188;-84
2021/03/05 03:23:25;;;;;;;0.20;0.20;;;2.30;99.90;;;;;;4939563;28;20224;-84
2021/03/05 03:25:52;;;;;;;0.50;0.50;;;2.30;99.90;;;;;;4957890;28;21302;-85
2021/03/05 03:28:18;;;;;;;1.10;0.93;;;2.20;99.90;;;;;;4982264;28;20287;-83
2021/03/05 03:30:45;;;;;;;7.73;0.50;;;2.20;99.90;;;;;;4969731;28;20342;-83
2021/03/05 03:33:11;;;;;;;11.73;1.43;;;2.10;99.90;;;;;;4989826;28;20203;-85
2021/03/05 03:35:38;;;;;;;0.40;0.40;;;2.10;99.90;;;;;;4974776;28;20643;-83
2021/03/05 03:38:07;;;;;;;0.50;0.50;;;2.00;99.90;;;;;;4974061;28;20219;-84
2021/03/05 03:40:35;;;;;;;0.40;0.40;;;1.90;99.90;;;;;;4967214;28;20224;-85
2021/03/05 03:43:02;;;;;;;0.33;0.33;;;1.80;99.90;;;;;;4975002;28;20230;-83
2021/03/05 03:45:30;;;;;;;0.20;0.20;;;1.80;99.90;;;;;;4972207;28;20338;-85
2021/03/05 03:47:58;;;;;;;0.40;0.40;;;1.80;99.90;;;;;;4989728;28;20187;-82
2021/03/05 03:50:40;;;;;;;0.40;0.40;;;1.80;99.90;;;;;;4988248;28;20215;-83
2021/03/05 03:53:11;;;;;;;0.30;0.30;;;1.90;99.90;;;;;;4977626;28;20274;-83
2021/03/05 03:55:37;;;;;;;0.77;0.77;;;1.80;99.90;;;;;;4983866;28;20321;-85
2021/03/05 03:58:05;;;;;;;0.20;0.20;;;1.70;99.90;;;;;;4995135;28;20219;-83
2021/03/05 04:00:31;;;;;;;0.30;0.30;;;1.60;99.90;;;;;;4995120;28;20263;-85
2021/03/05 04:03:01;;;;;;;0.30;0.30;;;1.50;99.90;;;;;;4982170;28;20686;-86
2021/03/05 04:05:27;;;;;;;1.20;1.17;;;1.40;99.90;;;;;;4995366;28;20223;-84
2021/03/05 04:07:56;;;;;;;0.33;0.33;;;1.40;99.90;;;;;;4976155;28;20234;-83
2021/03/05 04:10:22;;;;;;;0.63;0.63;;;1.40;99.90;;;;;;4987032;28;20220;-83
2021/03/05 04:12:48;;;;;;;0.27;0.27;;;1.40;99.90;;;;;;4982425;28;20374;-83
2021/03/05 04:15:16;;;;;;;0.30;0.30;;;1.40;99.90;;;;;;4936817;28;20188;-84
2021/03/05 04:17:42;;;;;;;0.40;0.40;;;1.40;99.90;;;;;;4943542;28;20239;-84
2021/03/05 04:20:13;;;;;;;8.93;0.60;;;1.40;99.90;;;;;;4954984;28;20620;-87
2021/03/05 04:22:40;;;;;;;0.20;0.20;;;1.50;99.90;;;;;;4969985;28;20299;-85
2021/03/05 04:25:07;;;;;;;0.30;0.30;;;1.50;99.90;;;;;;4962573;28;20251;-85
2021/03/05 04:27:33;;;;;;;0.60;0.60;;;1.50;99.90;;;;;;4957653;28;20681;-85
2021/03/05 04:29:58;;;;;;;0.40;0.40;;;1.60;99.90;;;;;;4992652;28;20195;-86
2021/03/05 04:32:25;;;;;;;0.87;0.63;;;1.60;99.90;;;;;;4983087;28;20246;-85
2021/03/05 04:34:50;;;;;;;0.50;0.50;;;1.60;99.90;;;;;;4975649;28;20224;-84
2021/03/05 04:37:16;;;;;;;2.53;0.87;;;1.60;99.90;;;;;;4965189;28;20241;-83
2021/03/05 04:39:42;;;;;;;0.40;0.40;;;1.60;99.90;;;;;;4961403;28;20250;-86
2021/03/05 04:42:08;;;;;;;0.40;0.40;;;1.50;99.90;;;;;;4976248;28;20199;-87
2021/03/05 04:44:33;;;;;;;0.30;0.30;;;1.50;99.90;;;;;;4967412;28;20294;-86
2021/03/05 04:47:00;;;;;;;0.70;0.70;;;1.50;99.90;;;;;;4957701;28;20223;-82
2021/03/05 04:49:26;;;;;;;0.40;0.40;;;1.40;99.90;;;;;;4982122;28;20215;-85
2021/03/05 04:51:51;;;;;;;0.40;0.40;;;1.40;99.90;;;;;;4972453;28;20347;-83
2021/03/05 04:54:17;;;;;;;0.67;0.67;;;1.40;99.90;;;;;;4950479;28;20180;-82
2021/03/05 04:56:43;;;;;;;1.37;1.27;;;1.30;99.90;;;;;;4974326;28;21034;-85
2021/03/05 04:59:09;;;;;;;3.50;1.13;;;1.30;99.90;;;;;;4960543;28;20255;-83
2021/03/05 05:01:34;;;;;;;1.10;0.40;;;1.20;99.90;;;;;;4979160;28;20876;-84
2021/03/05 05:04:00;;;;;;;0.30;0.30;;;1.20;99.90;;;;;;4966769;28;20223;-86
2021/03/05 05:06:26;;;;;;;0.30;0.30;;;1.10;99.90;;;;;;4979785;28;20227;-88
2021/03/05 05:08:52;;;;;;;0.40;0.40;;;1.10;99.90;;;;;;4962694;28;20203;-86
2021/03/05 05:11:17;;;;;;;0.30;0.30;;;1.00;99.90;;;;;;4975995;28;20237;-83
2021/03/05 05:13:43;;;;;;;0.33;0.33;;;1.00;99.90;;;;;;4959770;28;21119;-84
2021/03/05 05:16:09;;;;;;;0.20;0.20;;;0.90;99.90;;;;;;4975504;28;20246;-85
2021/03/05 05:18:35;;;;;;;0.97;0.77;;;0.80;99.90;;;;;;4958287;28;20227;-85
2021/03/05 05:21:00;;;;;;;0.30;0.30;;;0.80;99.90;;;;;;4975447;28;20214;-84
2021/03/05 05:23:26;;;;;;;0.30;0.30;;;0.80;99.90;;;;;;4937836;28;20258;-83
2021/03/05 05:25:52;;;;;;;0.60;0.60;;;0.70;99.90;;;;;;4968688;28;21031;-86
2021/03/05 05:28:18;;;;;;;0.30;0.30;;;0.70;99.90;;;;;;4989083;28;20215;-83
2021/03/05 05:30:44;;;;;;;0.30;0.30;;;0.60;99.90;;;;;;4970393;28;20224;-86
2021/03/05 05:33:09;;;;;;;5.70;0.70;;;0.50;99.90;;;;;;4975557;28;20716;-85
2021/03/05 05:35:35;;;;;;;0.40;0.40;;;0.50;99.90;;;;;;4992389;28;20699;-83
2021/03/05 05:38:01;;;;;;;0.20;0.20;;;0.50;99.90;;;;;;4958136;28;21256;-84
2021/03/05 05:40:29;;;;;;;0.30;0.30;;;0.60;99.90;;;;;;4974062;28;20720;-83
2021/03/05 05:42:55;;;;;;;0.30;0.30;;;0.60;99.90;;;;;;4972623;28;20226;-82
2021/03/05 05:45:20;;;;;;;0.30;0.30;;;0.60;99.90;;;;;;4988950;28;20767;-86
2021/03/05 05:47:46;;;;;;;2.00;0.60;;;0.60;99.90;;;;;;4963768;28;20184;-83
2021/03/05 05:50:12;;;;;;;0.20;0.20;;;0.60;99.90;;;;;;4973622;28;20222;-83
2021/03/05 05:52:40;;;;;;;0.40;0.40;;;0.60;99.90;;;;;;4959627;28;20245;-83
2021/03/05 05:55:07;;;;;;;0.20;0.20;;;0.60;99.90;;;;;;4953364;28;20239;-82
2021/03/05 05:57:37;;;;;;;0.20;0.20;;;0.60;99.90;;;;;;4943007;28;20219;-85
2021/03/05 06:00:05;;;;;;;0.30;0.30;;;0.60;99.90;;;;;;4998740;28;21308;-85
2021/03/05 06:02:32;;;;;;;23.37;1.20;;;0.60;99.90;;;;;;4976381;28;21084;-83
2021/03/05 06:04:58;;;;;;;0.93;0.93;;;0.60;99.90;;;;;;4998258;28;20224;-86
2021/03/05 06:07:25;;;;;;;0.40;0.40;;;0.50;99.90;;;;;;4997337;28;20542;-82
2021/03/05 06:09:51;;;;;;;0.40;0.40;;;0.50;99.90;;;;;;4964680;28;20231;-82
2021/03/05 06:12:18;;;;;;;0.30;0.30;;;0.50;99.90;;;;;;4981398;28;20219;-85
2021/03/05 06:14:45;;;;;;;0.40;0.40;;;0.50;99.90;;;;;;4997034;28;20184;-83
2021/03/05 06:17:11;;;;;;;0.50;0.50;;;0.50;99.90;;;;;;4978549;28;20254;-84
2021/03/05 06:19:37;;;;;;;0.30;0.30;;;0.40;99.90;;;;;;4986867;28;21249;-85
2021/03/05 06:22:21;;;;;;;0.40;0.40;;;0.50;99.90;;;;;;4956106;28;20235;-83
2021/03/05 06:24:47;;;;;;;0.30;0.30;;;0.80;99.90;;;;;;4994148;28;21192;-89
2021/03/05 06:27:14;;;;;;;0.40;0.40;;;1.20;99.90;;;;;;4996926;28;20188;-86
2021/03/05 06:29:42;;;;;;;0.50;0.50;;;1.70;99.90;;;;;;4996815;28;20184;-84
2021/03/05 06:32:09;;;;;;;0.60;0.60;;;2.20;99.90;;;;;;4980271;28;20238;-83
2021/03/05 06:34:55;;;;;;;4.63;1.67;;;3.10;99.90;;;;;;4980496;28;20261;-82
2021/03/05 06:37:23;;;;;;;0.30;0.30;;;4.30;99.90;;;;;;4989788;28;20251;-86
2021/03/05 06:40:15;;;;;;;0.50;0.50;;;5.20;99.90;;;;;;4991944;28;20218;-86
2021/03/05 06:42:52;;;;;;;0.60;0.60;;;6.70;99.90;;;;;;4965164;28;20223;-86
2021/03/05 06:45:21;;;;;;;0.30;0.30;;;7.60;99.90;;;;;;4975214;28;20184;-85
2021/03/05 06:48:02;;;;;;;1.43;0.50;;;8.60;99.90;;;;;;4998508;28;20194;-84
2021/03/05 06:50:29;;;;;;;1.03;0.67;;;9.50;99.90;;;;;;4969885;28;20216;-84
2021/03/05 06:52:55;;;;;;;5.40;1.83;;;9.90;99.90;;;;;;4969984;28;20326;-84
2021/03/05 06:55:22;;;;;;;0.47;0.47;;;10.50;99.90;;;;;;4979450;28;20727;-85
2021/03/05 06:57:48;;;;;;;0.70;0.70;;;11.10;99.90;;;;;;4956013;28;20330;-87
2021/03/05 07:00:25;;;;;;;0.70;0.70;;;11.50;99.90;;;;;;4986645;28;20196;-85
2021/03/05 07:02:51;;;;;;;0.30;0.30;;;11.90;99.90;;;;;;4997941;28;20285;-85
2021/03/05 07:05:17;;;;;;;0.43;0.43;;;12.30;99.90;;;;;;4947062;28;20212;-83
2021/03/05 07:07:45;;;;;;;0.47;0.47;;;12.50;99.90;;;;;;4961900;28;20216;-86
2021/03/05 07:10:12;;;;;;;0.60;0.60;;;12.30;99.90;;;;;;4967104;28;20246;-84
2021/03/05 07:12:58;;;;;;;0.50;0.50;;;12.00;99.90;;;;;;4954309;28;20256;-88
2021/03/05 07:15:24;;;;;;;0.40;0.40;;;12.20;99.90;;;;;;4970420;28;20699;-83
2021/03/05 07:17:49;;;;;;;0.57;0.57;;;12.10;99.90;;;;;;4974786;28;20184;-84
2021/03/05 07:20:15;;;;;;;0.50;0.50;;;11.60;99.90;;;;;;4966008;28;20288;-85
2021/03/05 07:22:46;;;;;;;1.27;1.00;;;11.00;99.90;;;;;;4979539;28;20254;-87
2021/03/05 07:25:16;;;;;;;0.20;0.20;;;10.60;99.90;;;;;;4974813;28;20215;-80
2021/03/05 07:27:44;;;;;;;3.07;0.90;;;10.00;99.90;;;;;;4986957;28;20277;-81
2021/03/05 07:30:20;;;;;;;2.03;0.43;;;9.80;99.90;;;;;;4968785;28;20242;-81
2021/03/05 07:32:51;;;;;;;2.83;1.50;;;9.90;99.90;;;;;;4974086;28;20261;-80
2021/03/05 07:35:33;;;;;;;0.87;0.87;;;10.10;99.90;;;;;;4954503;28;20549;-80
2021/03/05 07:38:01;;;;;;;0.40;0.40;;;10.30;99.90;;;;;;4993613;28;20751;-81
2021/03/05 07:40:28;;;;;;;0.53;0.53;;;10.30;99.90;;;;;;4990846;28;20593;-86
2021/03/05 07:42:55;;;;;;;0.20;0.20;;;10.10;99.90;;;;;;4988631;28;20219;-82
2021/03/05 07:45:21;;;;;;;0.77;0.40;;;11.10;99.90;;;;;;4956559;28;20191;-82
2021/03/05 07:47:48;;;;;;;1.77;0.90;;;12.40;99.90;;;;;;4966563;28;21006;-82
2021/03/05 07:50:16;;;;;;;2.33;0.23;;;13.30;99.90;;;;;;4984296;28;20255;-81
2021/03/05 07:52:42;;;;;;;0.40;0.40;;;14.20;99.90;;;;;;4970247;28;20756;-82
2021/03/05 07:55:09;;;;;;;0.57;0.50;;;15.30;99.90;;;;;;4977048;28;21156;-80
2021/03/05 07:57:34;;;;;;;0.40;0.40;;;16.30;99.90;;;;;;4974735;28;20585;-82
2021/03/05 08:00:01;;;;;;;0.70;0.70;;;17.20;99.90;;;;;;4999653;28;20202;-82
2021/03/05 08:02:52;;;;;;;1.00;0.80;;;17.60;99.90;;;;;;4982335;28;20311;-84
2021/03/05 08:05:33;;;;;;;0.70;0.63;;;17.90;99.90;;;;;;4976756;28;20234;-82
2021/03/05 08:08:09;;;;;;;8.30;1.43;;;18.00;99.90;;;;;;4973865;28;20223;-82
2021/03/05 08:10:44;;;;;;;7.20;1.00;;;17.90;99.90;;;;;;4980774;28;20289;-82
2021/03/05 08:16:31;;;;;;;0.70;0.30;;;18.40;99.90;;;;;;4987289;28;20223;-80
2021/03/05 08:19:06;;;;;;;2.00;0.87;;;18.60;99.90;;;;;;4989600;28;20228;-82
2021/03/05 08:21:50;;;;;;;0.70;0.50;;;17.00;97.40;;;;;;4976225;28;20241;-89
2021/03/05 08:24:20;;;;;;;0.83;0.47;;;14.90;99.80;;;;;;4992322;28;20196;-90
2021/03/05 08:27:08;;;;;;;1.33;0.60;;;13.20;99.90;;;;;;4984403;28;20196;-90
2021/03/05 08:30:06;;;;;;;1.13;0.43;;;11.90;99.90;;;;;;4989236;28;20274;-89
2021/03/05 08:32:34;;;;;;;0.20;0.20;;;11.30;99.90;;;;;;4993099;28;20227;-90
2021/03/05 08:35:07;;;;;;;1.80;1.70;;;10.70;99.90;;;;;;4993628;28;20338;-89
2021/03/05 08:37:38;;;;;;;0.37;0.37;;;10.10;99.90;;;;;;5000960;28;20706;-89
2021/03/05 08:40:10;;;;;;;0.10;0.10;;;9.90;99.90;;;;;;4990982;28;20358;-89
2021/03/05 08:42:40;;;;;;;2.60;0.43;;;9.90;99.90;;;;;;4996335;28;21194;-87
2021/03/05 08:45:22;;;;;;;1.07;0.40;;;9.70;99.90;;;;;;4980772;28;20574;-86
2021/03/05 08:47:50;;;;;;;0.53;0.50;;;10.00;99.90;;;;;;4969091;28;20331;-87
2021/03/05 08:50:19;;;;;;;1.30;0.40;;;9.90;99.90;;;;;;4994003;28;20216;-90
2021/03/05 08:52:47;;;;;;;1.10;0.60;;;10.50;99.90;;;;;;4990897;28;20231;-89
2021/03/05 08:55:14;;;;;;;0.20;0.20;;;12.20;99.90;;;;;;4963796;28;20243;-87
2021/03/05 08:57:43;;;;;;;0.37;0.37;;;13.50;99.90;;;;;;4962341;28;20338;-87
2021/03/05 09:00:15;;;;;;;0.50;0.50;;;14.70;99.90;;;;;;4960251;28;20189;-88
2021/03/05 09:02:43;;;;;;;0.60;0.40;;;15.20;99.90;;;;;;4969572;28;20224;-88
2021/03/05 09:05:12;;;;;;;0.20;0.20;;;15.30;99.90;;;;;;4957148;28;20667;-87
2021/03/05 09:07:52;;;;;;;0.30;0.23;;;13.90;99.90;;;;;;4955646;28;20212;-87
2021/03/05 09:10:19;;;;;;;0.20;0.20;;;11.70;99.90;;;;;;4963888;28;20258;-87
2021/03/05 09:12:59;;;;;;;0.20;0.20;;;10.10;99.90;;;;;;4977868;28;20236;-88
2021/03/05 09:15:30;;;;;;;0.93;0.93;;;9.00;99.90;;;;;;4959611;28;20184;-86
2021/03/05 09:17:57;;;;;;;1.03;0.43;;;7.70;99.90;;;;;;4952166;28;20194;-89
2021/03/05 09:20:33;;;;;;;4.50;1.37;;;7.30;99.90;;;;;;4970569;28;21067;-89
2021/03/05 09:23:14;;;;;;;4.03;1.13;;;7.40;99.90;;;;;;4955395;28;20223;-89
2021/03/05 09:25:50;;;;;;;0.43;0.43;;;7.20;99.90;;;;;;4983619;28;20212;-85
2021/03/05 09:28:16;;;;;;;0.50;0.50;;;6.70;99.90;;;;;;4997375;28;20211;-87
2021/03/05 09:30:50;;;;;;;0.20;0.20;;;6.30;99.90;;;;;;4972152;28;21011;-86
2021/03/05 09:33:16;;;;;;;4.00;0.50;;;5.90;99.90;;;;;;4965478;28;20193;-87
2021/03/05 09:35:42;;;;;;;0.53;0.53;;;5.70;99.90;;;;;;4963828;28;20180;-86
2021/03/05 09:38:08;;;;;;;1.57;1.27;;;5.80;99.90;;;;;;4948494;28;20219;-88
2021/03/05 09:40:34;;;;;;;0.30;0.30;;;5.90;99.90;;;;;;4963869;28;20654;-88
2021/03/05 09:43:02;;;;;;;2.10;0.40;;;5.60;99.90;;;;;;4953750;28;20224;-88
2021/03/05 09:45:49;;;;;;;1.60;0.87;;;5.60;99.90;;;;;;4957527;28;20729;-88
2021/03/05 09:48:27;;;;;;;0.30;0.30;;;6.00;99.90;;;;;;4970882;28;20192;-88
2021/03/05 09:50:58;;;;;;;0.20;0.20;;;5.90;99.90;;;;;;4979788;28;20197;-88
2021/03/05 09:53:30;;;;;;;0.30;0.30;;;5.80;99.90;;;;;;4996716;28;20634;-87
2021/03/05 09:55:59;;;;;;;0.20;0.20;;;5.90;99.90;;;;;;4991001;28;20223;-88
2021/03/05 09:58:25;;;;;;;1.90;0.33;;;5.70;99.90;;;;;;4999437;28;20358;-89
2021/03/05 10:00:53;;;;;;;1.10;0.87;;;5.80;99.90;;;;;;4969198;28;20259;-89
2021/03/05 10:03:19;;;;;;;1.60;0.57;;;5.80;99.90;;;;;;4977169;28;20226;-89
2021/03/05 10:05:46;;;;;;;0.30;0.30;;;6.10;99.90;;;;;;4988831;28;20188;-88
2021/03/05 10:08:20;;;;;;;0.30;0.30;;;6.00;99.90;;;;;;4978048;28;20212;-88
2021/03/05 10:11:10;;;;;;;0.27;0.27;;;6.00;99.90;;;;;;4979632;28;20228;-88
2021/03/05 10:13:49;;;;;;;0.23;0.23;;;5.80;99.90;;;;;;4985791;28;20208;-88
2021/03/05 10:16:16;;;;;;;0.40;0.40;;;5.70;99.90;;;;;;4979056;28;20228;-86
2021/03/05 10:18:43;;;;;;;0.30;0.30;;;5.80;99.90;;;;;;4970308;28;20218;-87
2021/03/05 10:21:11;;;;;;;0.37;0.37;;;5.80;99.90;;;;;;4954573;28;20279;-85
2021/03/05 10:23:38;;;;;;;6.70;0.73;;;5.90;99.90;;;;;;4956897;28;20266;-85
2021/03/05 10:26:14;;;;;;;0.30;0.30;;;6.20;99.90;;;;;;4965577;28;20273;-85
2021/03/05 10:28:40;;;;;;;0.20;0.20;;;7.00;99.90;;;;;;4990176;28;20254;-87
2021/03/05 10:31:06;;;;;;;1.37;1.17;;;7.30;99.90;;;;;;4971675;28;20338;-86
2021/03/05 10:33:38;;;;;;;0.50;0.50;;;7.90;99.90;;;;;;4954502;28;20223;-85
2021/03/05 10:36:05;;;;;;;0.40;0.40;;;9.10;99.90;;;;;;4989669;28;20192;-86
2021/03/05 10:38:31;;;;;;;1.60;0.63;;;8.90;99.90;;;;;;4974040;28;20259;-88
2021/03/05 10:40:57;;;;;;;2.47;0.87;;;8.40;99.90;;;;;;4971911;28;20657;-85
2021/03/05 10:43:22;;;;;;;0.43;0.43;;;9.00;99.90;;;;;;4973472;28;20615;-86
2021/03/05 10:45:48;;;;;;;0.20;0.20;;;9.00;99.90;;;;;;4986449;28;20237;-87
2021/03/05 10:48:14;;;;;;;0.23;0.23;;;9.10;99.90;;;;;;4971152;28;20196;-88
2021/03/05 10:50:40;;;;;;;3.93;0.80;;;9.20;99.90;;;;;;4984900;28;20636;-86
2021/03/05 10:53:06;;;;;;;1.13;1.07;;;9.90;99.90;;;;;;4944198;28;20784;-87
2021/03/05 10:55:32;;;;;;;0.23;0.23;;;10.80;99.90;;;;;;4945595;28;20224;-87
2021/03/05 10:57:58;;;;;;;0.20;0.20;;;10.60;99.90;;;;;;4960539;28;20216;-87
2021/03/05 11:00:25;;;;;;;0.60;0.47;;;8.70;99.90;;;;;;4944995;28;20184;-87
2021/03/05 11:02:50;;;;;;;2.53;0.40;;;8.20;99.90;;;;;;4963651;28;20235;-88
2021/03/05 11:05:19;;;;;;;0.43;0.43;;;8.50;99.90;;;;;;4946229;28;20694;-86
2021/03/05 11:07:45;;;;;;;0.20;0.20;;;8.30;99.90;;;;;;4954001;28;20365;-89
2021/03/05 11:10:12;;;;;;;0.77;0.77;;;8.60;99.90;;;;;;4940955;28;21327;-89
2021/03/05 11:12:37;;;;;;;0.20;0.20;;;9.90;99.90;;;;;;4913726;28;20232;-88
2021/03/05 11:15:04;;;;;;;2.00;0.50;;;9.20;99.90;;;;;;4925281;28;20215;-88
2021/03/05 11:17:30;;;;;;;2.47;0.40;;;10.00;99.90;;;;;;4944339;28;20216;-88
2021/03/05 11:19:56;;;;;;;0.50;0.50;;;10.10;99.90;;;;;;4942285;28;20216;-88
2021/03/05 11:22:23;;;;;;;0.20;0.20;;;10.10;99.90;;;;;;4949872;28;20575;-87
2021/03/05 11:24:49;;;;;;;0.40;0.40;;;9.30;99.90;;;;;;4923003;28;20248;-88
2021/03/05 11:27:15;;;;;;;0.23;0.23;;;9.60;99.90;;;;;;4950312;28;20259;-87
2021/03/05 11:29:41;;;;;;;0.43;0.43;;;9.40;99.90;;;;;;4965055;28;20213;-89
2021/03/05 11:32:08;;;;;;;0.50;0.40;;;8.90;99.90;;;;;;4979115;28;20768;-88
2021/03/05 11:34:34;;;;;;;0.43;0.43;;;8.60;99.90;;;;;;4961066;28;20216;-88
2021/03/05 11:37:00;;;;;;;1.13;0.63;;;8.80;99.90;;;;;;4954987;28;20335;-85
2021/03/05 11:39:26;;;;;;;0.30;0.30;;;8.90;99.90;;;;;;4973605;28;20227;-90
2021/03/05 11:41:54;;;;;;;3.50;0.50;;;9.30;99.90;;;;;;4969702;28;20293;-91
2021/03/05 11:44:20;;;;;;;1.37;0.60;;;9.70;99.90;;;;;;4967068;28;20220;-91
2021/03/05 11:46:46;;;;;;;0.60;0.40;;;9.40;99.90;;;;;;4951762;28;20237;-90
2021/03/05 11:49:12;;;;;;;0.70;0.50;;;9.40;99.90;;;;;;4930389;29;20221;-88
2021/03/05 11:51:38;;;;;;;0.53;0.43;;;9.10;99.90;;;;;;4938280;28;20233;-91
2021/03/05 11:54:05;;;;;;;1.73;1.30;;;9.00;99.90;;;;;;4948689;28;20233;-90
2021/03/05 11:56:31;;;;;;;0.10;0.10;;;9.10;99.90;;;;;;4962210;28;20762;-91
2021/03/05 11:58:56;;;;;;;0.30;0.30;;;9.30;99.90;;;;;;4972239;28;20781;-92
2021/03/05 12:01:22;;;;;;;1.07;0.67;;;8.70;99.90;;;;;;4939058;28;20274;-92
2021/03/05 12:03:51;;;;;;;1.83;0.87;;;8.30;99.90;;;;;;4971907;28;20217;-92
2021/03/05 12:06:19;;;;;;;0.97;0.57;;;8.60;99.90;;;;;;4956678;28;20728;-91
2021/03/05 12:08:45;;;;;;;0.30;0.30;;;8.30;99.90;;;;;;4942691;28;20725;-91
2021/03/05 12:11:11;;;;;;;0.30;0.30;;;8.40;99.90;;;;;;4957554;28;20232;-92
2021/03/05 12:13:36;;;;;;;0.67;0.60;;;8.40;99.90;;;;;;4968499;28;20288;-91
2021/03/05 12:16:02;;;;;;;0.30;0.30;;;8.30;99.90;;;;;;4945921;28;20315;-92
2021/03/05 12:18:31;;;;;;;0.60;0.60;;;8.10;99.90;;;;;;4948341;28;20348;-92
2021/03/05 12:20:57;;;;;;;0.30;0.30;;;8.40;99.90;;;;;;4949022;28;20190;-92
2021/03/05 12:23:22;;;;;;;1.00;0.70;;;8.30;99.90;;;;;;4965050;28;20235;-90
2021/03/05 12:25:48;;;;;;;6.33;0.70;;;8.40;99.90;;;;;;4947720;28;20213;-90
2021/03/05 12:28:14;;;;;;;0.40;0.30;;;8.70;99.90;;;;;;4951009;28;20255;-89
2021/03/05 12:30:40;;;;;;;3.10;1.90;;;8.80;99.90;;;;;;4953045;28;20311;-90
2021/03/05 12:33:06;;;;;;;0.60;0.60;;;8.30;99.90;;;;;;4955057;28;20698;-87
2021/03/05 12:35:31;;;;;;;1.07;0.33;;;8.70;99.90;;;;;;4902932;28;21083;-89
2021/03/05 12:37:57;;;;;;;1.90;0.53;;;7.90;99.90;;;;;;4946081;28;20223;-88
2021/03/05 12:40:23;;;;;;;0.37;0.37;;;7.30;99.90;;;;;;4953060;28;20276;-87
2021/03/05 12:42:54;;;;;;;0.30;0.30;;;7.20;99.90;;;;;;4967322;28;20234;-88
2021/03/05 12:45:21;;;;;;;2.73;1.13;;;7.40;99.90;;;;;;4934580;28;20239;-88
2021/03/05 12:47:47;;;;;;;1.73;0.37;;;7.90;99.90;;;;;;4946650;28;20189;-88
2021/03/05 12:50:13;;;;;;;0.93;0.50;;;7.30;99.90;;;;;;4949641;28;20231;-89
2021/03/05 12:52:39;;;;;;;0.27;0.27;;;7.40;99.90;;;;;;4970336;28;20254;-88
2021/03/05 12:55:05;;;;;;;1.20;1.00;;;7.40;99.90;;;;;;4975718;28;20224;-88
2021/03/05 12:57:31;;;;;;;0.40;0.40;;;7.10;99.90;;;;;;4997218;28;20223;-88
2021/03/05 12:59:57;;;;;;;0.30;0.30;;;7.20;99.90;;;;;;4978750;28;20218;-88
2021/03/05 13:02:22;;;;;;;0.60;0.60;;;7.50;99.90;;;;;;4983899;28;20290;-88
2021/03/05 13:04:48;;;;;;;0.70;0.70;;;7.50;99.90;;;;;;4997698;28;20262;-89
2021/03/05 13:07:14;;;;;;;0.93;0.77;;;7.80;99.90;;;;;;4977165;28;20231;-89